sensor_id;sensor_type;location;lat;lon;timestamp;P1;durP1;ratioP1;P2;durP2;ratioP2
78542;SDS011;67836;52.430;14.446;2023-06-10T00:01:46;1999.90;;;999.90;;
78542;SDS011;67836;52.430;14.446;2023-06-10T00:04:33;1999.90;;;999.90;;
78542;SDS011;67836;52.430;14.446;2023-06-10T00:07:17;1999.90;;;999.90;;
78542;SDS011;67836;52.430;14.446;2023-06-10T00:10:01;1999.90;;;999.90;;
78542;SDS011;67836;52.430;14.446;2023-06-10T00:12:49;1999.90;;;999.90;;
78542;SDS011;67836;52.430;14.446;2023-06-10T00:15:33;1999.90;;;999.90;;
78542;SDS011;67836;52.430;14.446;2023-06-10T00:18:17;1999.90;;;999.90;;
78542;SDS011;67836;52.430;14.446;2023-06-10T00:21:01;1999.90;;;999.90;;
78542;SDS011;67836;52.430;14.446;2023-06-10T00:23:48;1999.90;;;999.90;;
78542;SDS011;67836;52.430;14.446;2023-06-10T00:26:32;1999.90;;;999.90;;
78542;SDS011;67836;52.430;14.446;2023-06-10T00:29:16;1999.90;;;999.90;;
78542;SDS011;67836;52.430;14.446;2023-06-10T00:32:00;1011.15;;;510.45;;
78542;SDS011;67836;52.430;14.446;2023-06-10T00:37:28;1999.90;;;999.90;;
78542;SDS011;67836;52.430;14.446;2023-06-10T00:40:13;1999.90;;;999.90;;
78542;SDS011;67836;52.430;14.446;2023-06-10T00:42:56;1999.90;;;999.90;;
78542;SDS011;67836;52.430;14.446;2023-06-10T00:45:41;1999.90;;;999.90;;
78542;SDS011;67836;52.430;14.446;2023-06-10T00:48:25;1999.90;;;999.90;;
78542;SDS011;67836;52.430;14.446;2023-06-10T00:51:10;1999.90;;;999.90;;
78542;SDS011;67836;52.430;14.446;2023-06-10T00:53:54;1999.90;;;999.90;;
78542;SDS011;67836;52.430;14.446;2023-06-10T00:56:38;1999.90;;;999.90;;
78542;SDS011;67836;52.430;14.446;2023-06-10T00:59:22;1999.90;;;999.90;;
78542;SDS011;67836;52.430;14.446;2023-06-10T01:02:08;1999.90;;;999.90;;
78542;SDS011;67836;52.430;14.446;2023-06-10T01:04:53;1999.90;;;999.90;;
78542;SDS011;67836;52.430;14.446;2023-06-10T01:10:25;1999.90;;;999.90;;
78542;SDS011;67836;52.430;14.446;2023-06-10T01:13:14;1999.90;;;999.90;;
78542;SDS011;67836;52.430;14.446;2023-06-10T01:15:59;1999.90;;;999.90;;
78542;SDS011;67836;52.430;14.446;2023-06-10T01:18:43;1999.90;;;999.90;;
78542;SDS011;67836;52.430;14.446;2023-06-10T01:21:28;1999.90;;;999.90;;
78542;SDS011;67836;52.430;14.446;2023-06-10T01:24:12;1999.90;;;999.90;;
78542;SDS011;67836;52.430;14.446;2023-06-10T01:26:57;1999.90;;;999.90;;
78542;SDS011;67836;52.430;14.446;2023-06-10T01:29:45;1999.90;;;999.90;;
78542;SDS011;67836;52.430;14.446;2023-06-10T01:32:32;1999.90;;;999.90;;
78542;SDS011;67836;52.430;14.446;2023-06-10T01:35:18;1999.90;;;999.90;;
78542;SDS011;67836;52.430;14.446;2023-06-10T01:38:05;1999.90;;;999.90;;
78542;SDS011;67836;52.430;14.446;2023-06-10T01:40:49;1999.90;;;999.90;;
78542;SDS011;67836;52.430;14.446;2023-06-10T01:43:35;1999.90;;;999.90;;
78542;SDS011;67836;52.430;14.446;2023-06-10T01:46:21;1999.90;;;999.90;;
78542;SDS011;67836;52.430;14.446;2023-06-10T01:49:06;1999.90;;;999.90;;
78542;SDS011;67836;52.430;14.446;2023-06-10T01:51:50;1999.90;;;999.90;;
78542;SDS011;67836;52.430;14.446;2023-06-10T01:57:21;1999.90;;;999.90;;
78542;SDS011;67836;52.430;14.446;2023-06-10T02:00:05;1999.90;;;999.90;;
78542;SDS011;67836;52.430;14.446;2023-06-10T02:02:50;1999.90;;;999.90;;
78542;SDS011;67836;52.430;14.446;2023-06-10T02:05:34;1999.90;;;999.90;;
78542;SDS011;67836;52.430;14.446;2023-06-10T02:08:18;1999.90;;;999.90;;
78542;SDS011;67836;52.430;14.446;2023-06-10T02:11:02;1999.90;;;999.90;;
78542;SDS011;67836;52.430;14.446;2023-06-10T02:13:46;1999.90;;;999.90;;
78542;SDS011;67836;52.430;14.446;2023-06-10T02:16:30;1999.90;;;999.90;;
78542;SDS011;67836;52.430;14.446;2023-06-10T02:19:14;1999.90;;;999.90;;
78542;SDS011;67836;52.430;14.446;2023-06-10T02:21:59;1999.90;;;999.90;;
78542;SDS011;67836;52.430;14.446;2023-06-10T02:24:43;1999.90;;;999.90;;
78542;SDS011;67836;52.430;14.446;2023-06-10T02:30:11;1999.90;;;999.90;;
78542;SDS011;67836;52.430;14.446;2023-06-10T02:32:55;1999.90;;;999.90;;
78542;SDS011;67836;52.430;14.446;2023-06-10T02:35:39;1999.90;;;999.90;;
78542;SDS011;67836;52.430;14.446;2023-06-10T02:38:23;1999.90;;;999.90;;
78542;SDS011;67836;52.430;14.446;2023-06-10T02:41:08;1999.90;;;999.90;;
78542;SDS011;67836;52.430;14.446;2023-06-10T02:43:53;1999.90;;;999.90;;
78542;SDS011;67836;52.430;14.446;2023-06-10T02:46:37;1999.90;;;999.90;;
78542;SDS011;67836;52.430;14.446;2023-06-10T02:49:21;1999.90;;;999.90;;
78542;SDS011;67836;52.430;14.446;2023-06-10T02:52:05;1999.90;;;999.90;;
78542;SDS011;67836;52.430;14.446;2023-06-10T02:54:50;1999.90;;;999.90;;
78542;SDS011;67836;52.430;14.446;2023-06-10T02:57:34;1999.90;;;999.90;;
78542;SDS011;67836;52.430;14.446;2023-06-10T03:00:19;1999.90;;;999.90;;
78542;SDS011;67836;52.430;14.446;2023-06-10T03:03:04;1999.90;;;999.90;;
78542;SDS011;67836;52.430;14.446;2023-06-10T03:05:48;1999.90;;;999.90;;
78542;SDS011;67836;52.430;14.446;2023-06-10T03:11:16;1999.90;;;999.90;;
78542;SDS011;67836;52.430;14.446;2023-06-10T03:14:00;1999.90;;;999.90;;
78542;SDS011;67836;52.430;14.446;2023-06-10T03:19:29;1999.90;;;999.90;;
78542;SDS011;67836;52.430;14.446;2023-06-10T03:22:14;1999.90;;;999.90;;
78542;SDS011;67836;52.430;14.446;2023-06-10T03:24:58;1999.90;;;999.90;;
78542;SDS011;67836;52.430;14.446;2023-06-10T03:27:43;1999.90;;;999.90;;
78542;SDS011;67836;52.430;14.446;2023-06-10T03:30:27;1999.90;;;999.90;;
78542;SDS011;67836;52.430;14.446;2023-06-10T03:33:12;1999.90;;;999.90;;
78542;SDS011;67836;52.430;14.446;2023-06-10T03:35:56;1999.90;;;999.90;;
78542;SDS011;67836;52.430;14.446;2023-06-10T03:38:40;1999.90;;;999.90;;
78542;SDS011;67836;52.430;14.446;2023-06-10T03:41:23;1511.40;;;760.83;;
78542;SDS011;67836;52.430;14.446;2023-06-10T03:44:09;1999.90;;;999.90;;
78542;SDS011;67836;52.430;14.446;2023-06-10T03:46:53;1999.90;;;999.90;;
78542;SDS011;67836;52.430;14.446;2023-06-10T03:49:38;1999.90;;;999.90;;
78542;SDS011;67836;52.430;14.446;2023-06-10T03:52:23;1999.90;;;999.90;;
78542;SDS011;67836;52.430;14.446;2023-06-10T03:57:51;1999.90;;;999.90;;
78542;SDS011;67836;52.430;14.446;2023-06-10T04:00:35;1999.90;;;999.90;;
78542;SDS011;67836;52.430;14.446;2023-06-10T04:03:24;1999.90;;;999.90;;
78542;SDS011;67836;52.430;14.446;2023-06-10T04:06:09;1999.90;;;999.90;;
78542;SDS011;67836;52.430;14.446;2023-06-10T04:08:53;1999.90;;;999.90;;
78542;SDS011;67836;52.430;14.446;2023-06-10T04:11:39;1999.90;;;999.90;;
78542;SDS011;67836;52.430;14.446;2023-06-10T04:14:23;1999.90;;;999.90;;
78542;SDS011;67836;52.430;14.446;2023-06-10T04:17:08;1505.25;;;755.03;;
78542;SDS011;67836;52.430;14.446;2023-06-10T04:19:52;1999.90;;;999.90;;
78542;SDS011;67836;52.430;14.446;2023-06-10T04:22:38;1999.90;;;999.90;;
78542;SDS011;67836;52.430;14.446;2023-06-10T04:25:22;1999.90;;;999.90;;
78542;SDS011;67836;52.430;14.446;2023-06-10T04:28:08;1999.90;;;999.90;;
78542;SDS011;67836;52.430;14.446;2023-06-10T04:30:52;1999.90;;;999.90;;
78542;SDS011;67836;52.430;14.446;2023-06-10T04:36:19;1999.90;;;999.90;;
78542;SDS011;67836;52.430;14.446;2023-06-10T04:39:03;1999.90;;;999.90;;
78542;SDS011;67836;52.430;14.446;2023-06-10T04:41:49;1999.90;;;999.90;;
78542;SDS011;67836;52.430;14.446;2023-06-10T04:44:33;1999.90;;;999.90;;
78542;SDS011;67836;52.430;14.446;2023-06-10T04:47:18;1999.90;;;999.90;;
78542;SDS011;67836;52.430;14.446;2023-06-10T04:50:02;1999.90;;;999.90;;
78542;SDS011;67836;52.430;14.446;2023-06-10T04:52:47;1999.90;;;999.90;;
78542;SDS011;67836;52.430;14.446;2023-06-10T05:00:59;1999.90;;;999.90;;
78542;SDS011;67836;52.430;14.446;2023-06-10T05:03:43;1999.90;;;999.90;;
78542;SDS011;67836;52.430;14.446;2023-06-10T05:06:27;1999.90;;;999.90;;
78542;SDS011;67836;52.430;14.446;2023-06-10T05:09:11;1999.90;;;999.90;;
78542;SDS011;67836;52.430;14.446;2023-06-10T05:11:55;1999.90;;;999.90;;
78542;SDS011;67836;52.430;14.446;2023-06-10T05:14:39;1999.90;;;999.90;;
78542;SDS011;67836;52.430;14.446;2023-06-10T05:17:24;1999.90;;;999.90;;
78542;SDS011;67836;52.430;14.446;2023-06-10T05:20:09;1999.90;;;999.90;;
78542;SDS011;67836;52.430;14.446;2023-06-10T05:22:53;1999.90;;;999.90;;
78542;SDS011;67836;52.430;14.446;2023-06-10T05:25:37;1999.90;;;999.90;;
78542;SDS011;67836;52.430;14.446;2023-06-10T05:28:21;1999.90;;;999.90;;
78542;SDS011;67836;52.430;14.446;2023-06-10T05:31:05;1999.90;;;999.90;;
78542;SDS011;67836;52.430;14.446;2023-06-10T05:33:48;1999.90;;;999.90;;
78542;SDS011;67836;52.430;14.446;2023-06-10T05:36:33;1999.90;;;999.90;;
78542;SDS011;67836;52.430;14.446;2023-06-10T05:39:17;1999.90;;;999.90;;
78542;SDS011;67836;52.430;14.446;2023-06-10T05:42:01;1999.90;;;999.90;;
78542;SDS011;67836;52.430;14.446;2023-06-10T05:44:46;1999.90;;;999.90;;
78542;SDS011;67836;52.430;14.446;2023-06-10T05:47:30;1021.80;;;520.65;;
78542;SDS011;67836;52.430;14.446;2023-06-10T05:50:14;1999.90;;;999.90;;
78542;SDS011;67836;52.430;14.446;2023-06-10T05:52:59;1506.65;;;756.25;;
78542;SDS011;67836;52.430;14.446;2023-06-10T05:55:43;1999.90;;;999.90;;
78542;SDS011;67836;52.430;14.446;2023-06-10T05:58:27;1507.13;;;756.63;;
78542;SDS011;67836;52.430;14.446;2023-06-10T06:01:11;1999.90;;;999.90;;
78542;SDS011;67836;52.430;14.446;2023-06-10T06:03:55;1999.90;;;999.90;;
78542;SDS011;67836;52.430;14.446;2023-06-10T06:06:39;49.28;;;46.75;;
78542;SDS011;67836;52.430;14.446;2023-06-10T06:09:24;1999.90;;;999.90;;
78542;SDS011;67836;52.430;14.446;2023-06-10T06:12:08;1999.90;;;999.90;;
78542;SDS011;67836;52.430;14.446;2023-06-10T06:14:53;1999.90;;;999.90;;
78542;SDS011;67836;52.430;14.446;2023-06-10T06:17:36;1999.90;;;999.90;;
78542;SDS011;67836;52.430;14.446;2023-06-10T06:20:21;1999.90;;;999.90;;
78542;SDS011;67836;52.430;14.446;2023-06-10T06:23:06;530.45;;;278.83;;
78542;SDS011;67836;52.430;14.446;2023-06-10T06:25:52;34.63;;;32.63;;
78542;SDS011;67836;52.430;14.446;2023-06-10T06:28:36;1016.15;;;515.10;;
78542;SDS011;67836;52.430;14.446;2023-06-10T06:31:19;37.47;;;35.45;;
78542;SDS011;67836;52.430;14.446;2023-06-10T06:34:03;41.40;;;38.70;;
78542;SDS011;67836;52.430;14.446;2023-06-10T06:36:47;26.35;;;24.42;;
78542;SDS011;67836;52.430;14.446;2023-06-10T06:39:31;26.00;;;24.10;;
78542;SDS011;67836;52.430;14.446;2023-06-10T06:42:15;25.88;;;23.98;;
78542;SDS011;67836;52.430;14.446;2023-06-10T06:44:59;35.50;;;33.45;;
78542;SDS011;67836;52.430;14.446;2023-06-10T06:47:43;26.55;;;24.77;;
78542;SDS011;67836;52.430;14.446;2023-06-10T06:50:27;34.17;;;32.15;;
78542;SDS011;67836;52.430;14.446;2023-06-10T06:53:11;35.78;;;33.25;;
78542;SDS011;67836;52.430;14.446;2023-06-10T06:55:55;24.45;;;22.75;;
78542;SDS011;67836;52.430;14.446;2023-06-10T06:58:39;24.52;;;22.73;;
78542;SDS011;67836;52.430;14.446;2023-06-10T07:01:23;23.00;;;21.30;;
78542;SDS011;67836;52.430;14.446;2023-06-10T07:04:07;23.58;;;21.88;;
78542;SDS011;67836;52.430;14.446;2023-06-10T07:06:51;24.15;;;22.50;;
78542;SDS011;67836;52.430;14.446;2023-06-10T07:09:35;22.50;;;20.83;;
78542;SDS011;67836;52.430;14.446;2023-06-10T07:12:19;20.88;;;19.27;;
78542;SDS011;67836;52.430;14.446;2023-06-10T07:15:07;47.28;;;43.63;;
78542;SDS011;67836;52.430;14.446;2023-06-10T07:17:52;29.70;;;27.67;;
78542;SDS011;67836;52.430;14.446;2023-06-10T07:20:36;19.50;;;17.90;;
78542;SDS011;67836;52.430;14.446;2023-06-10T07:23:20;20.17;;;18.77;;
78542;SDS011;67836;52.430;14.446;2023-06-10T07:26:04;19.90;;;18.42;;
78542;SDS011;67836;52.430;14.446;2023-06-10T07:28:48;21.70;;;20.17;;
78542;SDS011;67836;52.430;14.446;2023-06-10T07:31:32;20.17;;;18.70;;
78542;SDS011;67836;52.430;14.446;2023-06-10T07:34:16;17.30;;;15.80;;
78542;SDS011;67836;52.430;14.446;2023-06-10T07:37:00;16.50;;;15.20;;
78542;SDS011;67836;52.430;14.446;2023-06-10T07:39:44;16.63;;;15.32;;
78542;SDS011;67836;52.430;14.446;2023-06-10T07:42:28;27.67;;;25.27;;
78542;SDS011;67836;52.430;14.446;2023-06-10T07:45:13;17.67;;;16.20;;
78542;SDS011;67836;52.430;14.446;2023-06-10T07:47:57;92.05;;;80.25;;
78542;SDS011;67836;52.430;14.446;2023-06-10T07:50:41;17.95;;;16.67;;
78542;SDS011;67836;52.430;14.446;2023-06-10T07:53:25;18.80;;;17.40;;
78542;SDS011;67836;52.430;14.446;2023-06-10T07:56:08;15.57;;;14.27;;
78542;SDS011;67836;52.430;14.446;2023-06-10T07:58:53;17.63;;;16.30;;
78542;SDS011;67836;52.430;14.446;2023-06-10T08:01:37;65.95;;;58.97;;
78542;SDS011;67836;52.430;14.446;2023-06-10T08:04:23;16.90;;;15.70;;
78542;SDS011;67836;52.430;14.446;2023-06-10T08:07:07;14.93;;;13.82;;
78542;SDS011;67836;52.430;14.446;2023-06-10T08:09:51;20.30;;;18.50;;
78542;SDS011;67836;52.430;14.446;2023-06-10T08:12:35;71.82;;;64.60;;
78542;SDS011;67836;52.430;14.446;2023-06-10T08:15:19;18.90;;;17.35;;
78542;SDS011;67836;52.430;14.446;2023-06-10T08:18:03;38.83;;;27.13;;
78542;SDS011;67836;52.430;14.446;2023-06-10T08:20:47;94.40;;;83.95;;
78542;SDS011;67836;52.430;14.446;2023-06-10T08:23:31;37.28;;;33.90;;
78542;SDS011;67836;52.430;14.446;2023-06-10T08:26:15;16.77;;;15.32;;
78542;SDS011;67836;52.430;14.446;2023-06-10T08:28:59;44.22;;;40.10;;
78542;SDS011;67836;52.430;14.446;2023-06-10T08:31:44;13.90;;;12.90;;
78542;SDS011;67836;52.430;14.446;2023-06-10T08:34:28;14.45;;;13.35;;
78542;SDS011;67836;52.430;14.446;2023-06-10T08:37:12;14.30;;;13.05;;
78542;SDS011;67836;52.430;14.446;2023-06-10T08:39:56;20.48;;;19.00;;
78542;SDS011;67836;52.430;14.446;2023-06-10T08:42:45;14.65;;;13.57;;
78542;SDS011;67836;52.430;14.446;2023-06-10T08:45:34;15.38;;;14.18;;
78542;SDS011;67836;52.430;14.446;2023-06-10T08:48:19;14.38;;;13.25;;
78542;SDS011;67836;52.430;14.446;2023-06-10T08:51:04;16.45;;;15.32;;
78542;SDS011;67836;52.430;14.446;2023-06-10T08:53:50;14.60;;;13.55;;
78542;SDS011;67836;52.430;14.446;2023-06-10T08:56:38;15.80;;;14.70;;
78542;SDS011;67836;52.430;14.446;2023-06-10T08:59:24;17.98;;;16.33;;
78542;SDS011;67836;52.430;14.446;2023-06-10T09:02:08;30.83;;;28.10;;
78542;SDS011;67836;52.430;14.446;2023-06-10T09:04:53;14.00;;;12.90;;
78542;SDS011;67836;52.430;14.446;2023-06-10T09:07:40;15.38;;;14.25;;
78542;SDS011;67836;52.430;14.446;2023-06-10T09:10:24;103.43;;;92.38;;
78542;SDS011;67836;52.430;14.446;2023-06-10T09:13:08;57.20;;;51.15;;
78542;SDS011;67836;52.430;14.446;2023-06-10T09:15:52;17.38;;;16.05;;
78542;SDS011;67836;52.430;14.446;2023-06-10T09:18:37;14.98;;;13.88;;
78542;SDS011;67836;52.430;14.446;2023-06-10T09:21:22;14.73;;;13.27;;
78542;SDS011;67836;52.430;14.446;2023-06-10T09:24:06;15.05;;;13.60;;
78542;SDS011;67836;52.430;14.446;2023-06-10T09:26:50;14.48;;;13.48;;
78542;SDS011;67836;52.430;14.446;2023-06-10T09:29:47;16.08;;;14.88;;
78542;SDS011;67836;52.430;14.446;2023-06-10T09:32:38;27.77;;;25.42;;
78542;SDS011;67836;52.430;14.446;2023-06-10T09:35:23;13.55;;;12.55;;
78542;SDS011;67836;52.430;14.446;2023-06-10T09:38:08;14.07;;;13.05;;
78542;SDS011;67836;52.430;14.446;2023-06-10T09:40:52;52.20;;;47.63;;
78542;SDS011;67836;52.430;14.446;2023-06-10T09:43:43;16.70;;;15.55;;
78542;SDS011;67836;52.430;14.446;2023-06-10T09:46:31;14.55;;;13.45;;
78542;SDS011;67836;52.430;14.446;2023-06-10T09:49:19;14.90;;;13.80;;
78542;SDS011;67836;52.430;14.446;2023-06-10T09:52:04;14.95;;;13.75;;
78542;SDS011;67836;52.430;14.446;2023-06-10T09:54:49;15.20;;;14.10;;
78542;SDS011;67836;52.430;14.446;2023-06-10T09:57:36;14.35;;;13.25;;
78542;SDS011;67836;52.430;14.446;2023-06-10T10:00:21;14.45;;;13.43;;
78542;SDS011;67836;52.430;14.446;2023-06-10T10:03:06;293.10;;;200.77;;
78542;SDS011;67836;52.430;14.446;2023-06-10T10:05:57;15.13;;;14.02;;
78542;SDS011;67836;52.430;14.446;2023-06-10T10:08:44;15.68;;;14.57;;
78542;SDS011;67836;52.430;14.446;2023-06-10T10:11:31;16.30;;;14.98;;
78542;SDS011;67836;52.430;14.446;2023-06-10T10:14:15;15.10;;;14.10;;
78542;SDS011;67836;52.430;14.446;2023-06-10T10:17:00;15.75;;;14.55;;
78542;SDS011;67836;52.430;14.446;2023-06-10T10:19:50;43.63;;;39.63;;
78542;SDS011;67836;52.430;14.446;2023-06-10T10:22:38;13.98;;;12.98;;
78542;SDS011;67836;52.430;14.446;2023-06-10T10:25:32;15.30;;;14.05;;
78542;SDS011;67836;52.430;14.446;2023-06-10T10:28:21;15.05;;;13.90;;
78542;SDS011;67836;52.430;14.446;2023-06-10T10:31:10;15.00;;;13.80;;
78542;SDS011;67836;52.430;14.446;2023-06-10T10:33:57;116.90;;;93.47;;
78542;SDS011;67836;52.430;14.446;2023-06-10T10:36:42;62.97;;;56.50;;
78542;SDS011;67836;52.430;14.446;2023-06-10T10:39:27;31.85;;;29.15;;
78542;SDS011;67836;52.430;14.446;2023-06-10T10:42:11;24.83;;;22.95;;
78542;SDS011;67836;52.430;14.446;2023-06-10T10:44:56;53.40;;;48.80;;
78542;SDS011;67836;52.430;14.446;2023-06-10T10:47:41;16.48;;;15.35;;
78542;SDS011;67836;52.430;14.446;2023-06-10T10:50:25;22.50;;;20.48;;
78542;SDS011;67836;52.430;14.446;2023-06-10T10:53:14;18.05;;;16.67;;
78542;SDS011;67836;52.430;14.446;2023-06-10T10:56:21;17.00;;;15.80;;
78542;SDS011;67836;52.430;14.446;2023-06-10T10:59:13;17.30;;;15.95;;
78542;SDS011;67836;52.430;14.446;2023-06-10T11:02:01;65.10;;;60.55;;
78542;SDS011;67836;52.430;14.446;2023-06-10T11:04:48;70.70;;;63.72;;
78542;SDS011;67836;52.430;14.446;2023-06-10T11:07:32;18.42;;;17.13;;
78542;SDS011;67836;52.430;14.446;2023-06-10T11:10:17;40.58;;;37.63;;
78542;SDS011;67836;52.430;14.446;2023-06-10T11:15:52;24.98;;;23.02;;
78542;SDS011;67836;52.430;14.446;2023-06-10T11:18:40;81.25;;;74.10;;
78542;SDS011;67836;52.430;14.446;2023-06-10T11:21:25;21.65;;;20.15;;
78542;SDS011;67836;52.430;14.446;2023-06-10T11:24:12;106.30;;;95.32;;
78542;SDS011;67836;52.430;14.446;2023-06-10T11:32:50;41.78;;;38.80;;
78542;SDS011;67836;52.430;14.446;2023-06-10T11:35:35;15.07;;;14.02;;
78542;SDS011;67836;52.430;14.446;2023-06-10T11:38:19;15.82;;;14.63;;
78542;SDS011;67836;52.430;14.446;2023-06-10T11:41:03;34.40;;;31.95;;
78542;SDS011;67836;52.430;14.446;2023-06-10T11:43:47;15.05;;;13.95;;
78542;SDS011;67836;52.430;14.446;2023-06-10T11:46:32;95.40;;;85.80;;
78542;SDS011;67836;52.430;14.446;2023-06-10T11:49:17;15.68;;;14.57;;
78542;SDS011;67836;52.430;14.446;2023-06-10T11:52:02;218.35;;;145.18;;
78542;SDS011;67836;52.430;14.446;2023-06-10T11:54:53;167.20;;;148.85;;
78542;SDS011;67836;52.430;14.446;2023-06-10T11:57:39;125.00;;;113.45;;
78542;SDS011;67836;52.430;14.446;2023-06-10T12:00:23;27.35;;;25.67;;
78542;SDS011;67836;52.430;14.446;2023-06-10T12:03:08;19.23;;;17.95;;
78542;SDS011;67836;52.430;14.446;2023-06-10T12:05:56;26.73;;;25.23;;
78542;SDS011;67836;52.430;14.446;2023-06-10T12:08:44;26.52;;;25.02;;
78542;SDS011;67836;52.430;14.446;2023-06-10T12:11:28;23.05;;;21.58;;
78542;SDS011;67836;52.430;14.446;2023-06-10T12:14:12;78.35;;;72.93;;
78542;SDS011;67836;52.430;14.446;2023-06-10T12:16:56;147.82;;;133.90;;
78542;SDS011;67836;52.430;14.446;2023-06-10T12:19:40;59.80;;;56.50;;
78542;SDS011;67836;52.430;14.446;2023-06-10T12:22:24;40.38;;;38.22;;
78542;SDS011;67836;52.430;14.446;2023-06-10T12:25:09;17.52;;;16.23;;
78542;SDS011;67836;52.430;14.446;2023-06-10T12:27:55;18.05;;;16.65;;
78542;SDS011;67836;52.430;14.446;2023-06-10T12:30:41;23.58;;;22.00;;
78542;SDS011;67836;52.430;14.446;2023-06-10T12:33:25;192.70;;;171.85;;
78542;SDS011;67836;52.430;14.446;2023-06-10T12:36:15;19.48;;;18.10;;
78542;SDS011;67836;52.430;14.446;2023-06-10T12:39:03;163.80;;;128.90;;
78542;SDS011;67836;52.430;14.446;2023-06-10T12:41:48;120.82;;;111.03;;
78542;SDS011;67836;52.430;14.446;2023-06-10T12:44:33;28.65;;;27.10;;
78542;SDS011;67836;52.430;14.446;2023-06-10T12:47:18;27.10;;;25.50;;
78542;SDS011;67836;52.430;14.446;2023-06-10T12:50:02;63.97;;;60.78;;
78542;SDS011;67836;52.430;14.446;2023-06-10T12:52:46;18.10;;;16.88;;
78542;SDS011;67836;52.430;14.446;2023-06-10T12:55:31;31.02;;;29.10;;
78542;SDS011;67836;52.430;14.446;2023-06-10T12:58:16;16.02;;;14.73;;
78542;SDS011;67836;52.430;14.446;2023-06-10T13:01:00;33.75;;;31.73;;
78542;SDS011;67836;52.430;14.446;2023-06-10T13:03:43;16.60;;;15.18;;
78542;SDS011;67836;52.430;14.446;2023-06-10T13:06:28;17.25;;;15.95;;
78542;SDS011;67836;52.430;14.446;2023-06-10T13:09:12;78.35;;;74.10;;
78542;SDS011;67836;52.430;14.446;2023-06-10T13:11:57;24.30;;;22.88;;
78542;SDS011;67836;52.430;14.446;2023-06-10T13:14:43;47.38;;;44.75;;
78542;SDS011;67836;52.430;14.446;2023-06-10T13:17:28;42.47;;;40.35;;
78542;SDS011;67836;52.430;14.446;2023-06-10T13:20:12;10.00;;;4.07;;
78542;SDS011;67836;52.430;14.446;2023-06-10T13:22:56;6.63;;;3.70;;
78542;SDS011;67836;52.430;14.446;2023-06-10T13:25:40;5.45;;;2.78;;
78542;SDS011;67836;52.430;14.446;2023-06-10T13:28:24;8.07;;;3.85;;
78542;SDS011;67836;52.430;14.446;2023-06-10T13:31:08;6.50;;;3.13;;
78542;SDS011;67836;52.430;14.446;2023-06-10T13:33:52;6.68;;;3.47;;
78542;SDS011;67836;52.430;14.446;2023-06-10T13:36:36;6.63;;;3.85;;
78542;SDS011;67836;52.430;14.446;2023-06-10T13:39:20;7.63;;;3.67;;
78542;SDS011;67836;52.430;14.446;2023-06-10T13:42:04;6.38;;;3.67;;
78542;SDS011;67836;52.430;14.446;2023-06-10T13:44:49;7.75;;;3.67;;
78542;SDS011;67836;52.430;14.446;2023-06-10T13:47:34;7.03;;;3.92;;
78542;SDS011;67836;52.430;14.446;2023-06-10T13:50:19;7.20;;;3.47;;
78542;SDS011;67836;52.430;14.446;2023-06-10T13:53:03;7.75;;;3.30;;
78542;SDS011;67836;52.430;14.446;2023-06-10T13:55:47;6.85;;;3.65;;
78542;SDS011;67836;52.430;14.446;2023-06-10T13:58:31;7.18;;;4.00;;
78542;SDS011;67836;52.430;14.446;2023-06-10T14:01:15;6.93;;;3.72;;
78542;SDS011;67836;52.430;14.446;2023-06-10T14:03:59;6.72;;;3.83;;
78542;SDS011;67836;52.430;14.446;2023-06-10T14:06:43;6.25;;;2.97;;
78542;SDS011;67836;52.430;14.446;2023-06-10T14:09:27;6.47;;;3.80;;
78542;SDS011;67836;52.430;14.446;2023-06-10T14:12:11;7.65;;;4.00;;
78542;SDS011;67836;52.430;14.446;2023-06-10T14:14:56;5.40;;;3.30;;
78542;SDS011;67836;52.430;14.446;2023-06-10T14:17:40;7.32;;;3.50;;
78542;SDS011;67836;52.430;14.446;2023-06-10T14:20:24;8.00;;;3.88;;
78542;SDS011;67836;52.430;14.446;2023-06-10T14:23:10;6.30;;;3.17;;
78542;SDS011;67836;52.430;14.446;2023-06-10T14:25:54;7.32;;;3.03;;
78542;SDS011;67836;52.430;14.446;2023-06-10T14:28:38;6.15;;;2.97;;
78542;SDS011;67836;52.430;14.446;2023-06-10T14:31:22;6.85;;;3.42;;
78542;SDS011;67836;52.430;14.446;2023-06-10T14:34:06;6.75;;;2.80;;
78542;SDS011;67836;52.430;14.446;2023-06-10T14:36:51;6.47;;;3.22;;
78542;SDS011;67836;52.430;14.446;2023-06-10T14:39:35;6.93;;;3.58;;
78542;SDS011;67836;52.430;14.446;2023-06-10T14:42:19;6.70;;;3.50;;
78542;SDS011;67836;52.430;14.446;2023-06-10T14:45:04;6.65;;;3.15;;
78542;SDS011;67836;52.430;14.446;2023-06-10T14:47:49;5.78;;;2.80;;
78542;SDS011;67836;52.430;14.446;2023-06-10T14:50:36;7.43;;;3.72;;
78542;SDS011;67836;52.430;14.446;2023-06-10T14:53:20;5.57;;;3.15;;
78542;SDS011;67836;52.430;14.446;2023-06-10T14:56:04;7.72;;;3.42;;
78542;SDS011;67836;52.430;14.446;2023-06-10T14:58:49;5.50;;;2.97;;
78542;SDS011;67836;52.430;14.446;2023-06-10T15:01:33;8.95;;;4.13;;
78542;SDS011;67836;52.430;14.446;2023-06-10T15:04:16;7.00;;;3.38;;
78542;SDS011;67836;52.430;14.446;2023-06-10T15:07:00;6.85;;;3.60;;
78542;SDS011;67836;52.430;14.446;2023-06-10T15:09:44;5.97;;;3.53;;
78542;SDS011;67836;52.430;14.446;2023-06-10T15:12:28;6.43;;;3.72;;
78542;SDS011;67836;52.430;14.446;2023-06-10T15:15:12;6.32;;;3.17;;
78542;SDS011;67836;52.430;14.446;2023-06-10T15:17:56;5.93;;;3.08;;
78542;SDS011;67836;52.430;14.446;2023-06-10T15:20:40;6.38;;;2.95;;
78542;SDS011;67836;52.430;14.446;2023-06-10T15:23:24;5.00;;;2.90;;
78542;SDS011;67836;52.430;14.446;2023-06-10T15:26:08;7.25;;;3.10;;
78542;SDS011;67836;52.430;14.446;2023-06-10T15:28:52;6.88;;;3.28;;
78542;SDS011;67836;52.430;14.446;2023-06-10T15:31:36;6.53;;;3.25;;
78542;SDS011;67836;52.430;14.446;2023-06-10T15:34:20;5.70;;;2.90;;
78542;SDS011;67836;52.430;14.446;2023-06-10T15:37:04;4.47;;;2.33;;
78542;SDS011;67836;52.430;14.446;2023-06-10T15:39:48;6.28;;;2.90;;
78542;SDS011;67836;52.430;14.446;2023-06-10T15:42:32;5.40;;;2.80;;
78542;SDS011;67836;52.430;14.446;2023-06-10T15:45:16;5.10;;;2.78;;
78542;SDS011;67836;52.430;14.446;2023-06-10T15:48:00;5.07;;;2.90;;
78542;SDS011;67836;52.430;14.446;2023-06-10T15:50:44;6.40;;;3.45;;
78542;SDS011;67836;52.430;14.446;2023-06-10T15:53:29;8.25;;;3.70;;
78542;SDS011;67836;52.430;14.446;2023-06-10T15:56:13;6.00;;;2.88;;
78542;SDS011;67836;52.430;14.446;2023-06-10T15:58:57;5.20;;;2.58;;
78542;SDS011;67836;52.430;14.446;2023-06-10T16:01:42;6.72;;;3.47;;
78542;SDS011;67836;52.430;14.446;2023-06-10T16:04:25;7.40;;;3.03;;
78542;SDS011;67836;52.430;14.446;2023-06-10T16:07:10;6.65;;;3.30;;
78542;SDS011;67836;52.430;14.446;2023-06-10T16:09:54;6.43;;;3.50;;
78542;SDS011;67836;52.430;14.446;2023-06-10T16:12:38;5.55;;;3.13;;
78542;SDS011;67836;52.430;14.446;2023-06-10T16:15:22;5.28;;;2.88;;